ADDS METAR Data INFO
IDs: Format: Raw Decoded Include TAF

Data at: 2334 UTC 15 Dec 2017

KAID 152059Z 27015G23KT 10SM BKN033 M00/M08 A2997 RMK AO2 LAST
KAID 151954Z 27014G22KT 10SM OVC030 M01/M07 A2996 RMK AO2
KAID 151857Z 25010G17KT 10SM OVC023 M02/M06 A2996 RMK AO2
KAID 151755Z 25010G15KT 10SM OVC021 M02/M07 A2996 RMK AO2
KAID 151647Z 26010G16KT 10SM OVC023 M02/M07 A2997 RMK AO2
KAID 151549Z 24010G16KT 10SM BKN025 BKN030 OVC047 M03/M08 A2999 RMK AO2
KAID 151445Z 25009G16KT 10SM SCT043 OVC050 M03/M08 A2998 RMK AO2
KAID 151349Z 22007KT 10SM OVC030 M04/M08 A2999 RMK AO2
KAID 141745Z 01005KT 10SM CLR M03/M10 A3003
KAID 141648Z 01005KT 10SM SCT020 M03/M11 A3007
KAID 141556Z 01005KT 10SM BKN016 M05/M12 A3005
KAID 141345Z 01005KT 10SM SCT014 M06/M12 A3001